Baldwinville, Massachusetts
Current Conditions -  °F | °C
As of 1:52 PM on Friday 24 Oct 2014 (Local Time) from KORE Reporting Station
Overcast Overcast  
Wind Chill: 10°   Ceiling: 2300
Heat Index: 10°   Visibility: 10mi
Dew Point:   Wind: 8mph
Humidity: 74%   Direction: 330°NNW
Pressure: 29.73"   Gusts: NA
Location:  42.62°N, 72.08°W
Report Text: KORE 241752Z AUTO 33007KT 10SM OVC023 10/06 A2973 RMK AO2 SLP069 60000 T01000056 10100 20072 58013
Loading
Personal Weather Stations






























Interactive Weather Map
Tropical Storm Tracking
New forecast layout! Learn more

10-Day Weather Forecast

Advertisements
Track Severe Weather on mobile